createdAt,value
2023-02-05T00:01:28.944Z,106.97
2023-02-05T00:06:21.995Z,93.55
2023-02-05T00:11:14.719Z,82.03
2023-02-05T00:16:27.952Z,91.90
2023-02-05T00:21:27.749Z,85.50
2023-02-05T00:26:20.532Z,72.65
2023-02-05T00:31:16.405Z,80.13
2023-02-05T00:36:12.988Z,99.07
2023-02-05T00:41:05.908Z,97.40
2023-02-05T00:45:59.752Z,90.55
2023-02-05T00:50:54.101Z,90.07
2023-02-05T00:55:47.365Z,96.82
2023-02-05T01:00:40.580Z,91.88
2023-02-05T01:05:35.697Z,93.65
2023-02-05T01:10:28.812Z,98.88
2023-02-05T01:15:22.641Z,92.15
2023-02-05T01:20:16.857Z,87.97
2023-02-05T01:25:11.365Z,94.15
2023-02-05T01:30:07.419Z,83.60
2023-02-05T01:35:01.230Z,88.40
2023-02-05T01:39:54.177Z,87.10
2023-02-05T01:45:29.850Z,87.30
2023-02-05T01:50:43.678Z,87.43
2023-02-05T01:55:49.136Z,83.57
2023-02-05T02:00:42.517Z,92.82
2023-02-05T02:05:36.464Z,82.72
2023-02-05T02:10:31.797Z,89.95
2023-02-05T02:15:26.541Z,91.97
2023-02-05T02:20:20.424Z,82.00
2023-02-05T02:25:28.123Z,83.90
2023-02-05T02:30:45.065Z,82.90
2023-02-05T02:36:01.969Z,93.85
2023-02-05T02:40:56.834Z,87.93
2023-02-05T02:45:55.801Z,84.80
2023-02-05T02:50:52.080Z,78.95
2023-02-05T02:55:45.782Z,85.32
2023-02-05T03:00:40.878Z,75.68
2023-02-05T03:05:35.116Z,83.63
2023-02-05T03:10:41.585Z,82.18
2023-02-05T03:15:35.976Z,74.32
2023-02-05T03:20:36.634Z,61.97
2023-02-05T03:25:30.715Z,59.95
2023-02-05T03:30:30.864Z,66.93
2023-02-05T03:35:35.789Z,59.90
2023-02-05T03:40:47.275Z,63.00
2023-02-05T03:45:42.073Z,59.78
2023-02-05T03:51:04.957Z,63.28
2023-02-05T03:56:05.790Z,56.92
2023-02-05T04:00:59.084Z,57.17
2023-02-05T04:05:51.843Z,58.28
2023-02-05T04:10:45.621Z,64.15
2023-02-05T04:15:42.172Z,56.75
2023-02-05T04:20:37.418Z,67.63
2023-02-05T04:25:32.649Z,63.80
2023-02-05T04:30:26.963Z,60.17
2023-02-05T04:35:20.527Z,67.72
2023-02-05T04:40:14.573Z,63.95
2023-02-05T04:45:09.010Z,59.05
2023-02-05T04:50:01.957Z,60.95
2023-02-05T04:54:55.689Z,62.58
2023-02-05T04:59:49.158Z,61.10
2023-02-05T05:04:43.329Z,53.20
2023-02-05T05:09:37.620Z,37.70
2023-02-05T05:14:30.127Z,53.70
2023-02-05T05:19:23.493Z,43.60
2023-02-05T05:24:16.998Z,51.63
2023-02-05T05:29:10.575Z,56.83
2023-02-05T05:34:04.201Z,52.17
2023-02-05T05:39:17.542Z,74.95
2023-02-05T05:44:11.055Z,149.05
2023-02-05T05:49:04.187Z,162.55
2023-02-05T05:53:58.154Z,103.53
2023-02-05T05:58:51.911Z,123.28
2023-02-05T06:03:45.224Z,123.80
2023-02-05T06:08:39.125Z,155.13
2023-02-05T06:13:32.451Z,188.57
2023-02-05T06:18:25.871Z,198.02
2023-02-05T06:23:19.336Z,207.70
2023-02-05T06:28:12.980Z,226.20
2023-02-05T06:33:07.217Z,309.15
2023-02-05T06:38:01.286Z,421.77
2023-02-05T06:42:54.837Z,595.50
2023-02-05T06:47:49.196Z,353.63
2023-02-05T06:52:42.092Z,543.05
2023-02-05T06:57:36.048Z,355.38
2023-02-05T07:02:29.838Z,559.53
2023-02-05T07:07:23.335Z,238.10
2023-02-05T07:12:16.660Z,483.40
2023-02-05T07:17:09.672Z,454.05
2023-02-05T07:22:02.962Z,225.93
2023-02-05T07:26:56.803Z,458.73
2023-02-05T07:31:51.939Z,332.10
2023-02-05T07:36:46.159Z,376.67
2023-02-05T07:41:39.246Z,305.15
2023-02-05T07:46:32.170Z,378.20
2023-02-05T07:51:26.857Z,244.45
2023-02-05T07:56:23.341Z,121.80
2023-02-05T08:01:17.027Z,124.68
2023-02-05T08:06:12.916Z,109.15
2023-02-05T08:11:07.177Z,118.20
2023-02-05T08:16:01.526Z,102.57
2023-02-05T08:20:55.550Z,105.60
2023-02-05T08:25:48.962Z,86.07
2023-02-05T08:30:42.220Z,96.60
2023-02-05T08:35:36.424Z,93.30
2023-02-05T08:40:31.273Z,97.55
2023-02-05T08:45:25.704Z,98.05
2023-02-05T08:50:19.373Z,98.88
2023-02-05T08:55:13.546Z,84.28
2023-02-05T09:00:08.113Z,87.35
2023-02-05T09:05:08.883Z,86.68
2023-02-05T09:10:03.833Z,84.10
2023-02-05T09:14:58.853Z,84.78
2023-02-05T09:19:52.869Z,92.07
2023-02-05T09:24:46.360Z,98.43
2023-02-05T09:29:39.882Z,82.03
2023-02-05T09:34:33.214Z,100.03
2023-02-05T09:40:11.850Z,91.22
2023-02-05T09:45:26.704Z,79.57
2023-02-05T09:50:27.564Z,91.45
2023-02-05T09:55:28.815Z,83.38
2023-02-05T10:00:34.276Z,80.85
2023-02-05T10:05:30.665Z,80.18
2023-02-05T10:10:41.033Z,93.13
2023-02-05T10:15:45.207Z,113.53
2023-02-05T10:21:10.669Z,103.25
2023-02-05T10:26:18.587Z,93.88
2023-02-05T10:31:37.149Z,102.90
2023-02-05T10:36:30.768Z,100.15
2023-02-05T10:41:27.345Z,95.68
2023-02-05T10:46:21.383Z,93.55
2023-02-05T10:51:22.900Z,82.53
2023-02-05T10:56:20.448Z,83.90
2023-02-05T11:01:25.045Z,86.63
2023-02-05T11:06:17.966Z,88.68
2023-02-05T11:11:22.225Z,73.93
2023-02-05T11:16:15.850Z,55.70
2023-02-05T11:21:10.641Z,53.25
2023-02-05T11:26:19.120Z,50.60
2023-02-05T11:31:21.306Z,47.87
2023-02-05T11:36:23.193Z,45.00
2023-02-05T11:41:48.706Z,50.72
2023-02-05T11:46:45.024Z,39.88
2023-02-05T11:51:40.913Z,44.22
2023-02-05T11:56:34.449Z,46.53
2023-02-05T12:01:32.734Z,37.65
2023-02-05T12:06:34.248Z,39.47
2023-02-05T12:11:57.207Z,35.13
2023-02-05T12:17:01.340Z,40.63
2023-02-05T12:22:11.111Z,32.22
2023-02-05T12:27:26.769Z,20.77
2023-02-05T12:32:46.608Z,28.50
2023-02-05T12:37:46.001Z,17.95
2023-02-05T12:42:57.550Z,14.90
2023-02-05T12:48:13.405Z,12.90
2023-02-05T12:53:05.861Z,13.13
2023-02-05T12:58:04.626Z,10.75
2023-02-05T13:03:06.515Z,5.47
2023-02-05T13:08:09.503Z,6.57
2023-02-05T13:13:06.309Z,4.45
2023-02-05T13:18:24.656Z,5.20
2023-02-05T13:23:38.541Z,3.87
2023-02-05T13:28:41.241Z,5.82
2023-02-05T13:33:36.306Z,6.28
2023-02-05T13:38:48.146Z,4.72
2023-02-05T13:43:50.354Z,3.60
2023-02-05T13:49:07.518Z,6.40
2023-02-05T13:54:34.161Z,8.90
2023-02-05T13:59:56.253Z,5.72
2023-02-05T14:04:54.849Z,4.05
2023-02-05T14:09:56.832Z,8.30
2023-02-05T14:15:20.579Z,5.47
2023-02-05T14:20:25.683Z,6.43
2023-02-05T14:25:38.216Z,5.07
2023-02-05T14:30:30.882Z,9.18
2023-02-05T14:35:34.473Z,5.32
2023-02-05T14:40:32.459Z,7.07
2023-02-05T14:45:28.421Z,5.68
2023-02-05T14:50:30.152Z,4.60
2023-02-05T14:55:29.812Z,4.93
2023-02-05T15:00:25.382Z,5.60
2023-02-05T15:05:42.334Z,6.15
2023-02-05T15:10:44.360Z,7.60
2023-02-05T15:15:38.889Z,5.57
2023-02-05T15:20:36.518Z,5.90
2023-02-05T15:25:33.858Z,5.13
2023-02-05T15:30:29.172Z,4.00
2023-02-05T15:35:26.667Z,12.20
2023-02-05T15:40:29.508Z,8.63
2023-02-05T15:45:24.615Z,4.05
2023-02-05T15:50:17.926Z,6.65
2023-02-05T15:55:18.634Z,5.97
2023-02-05T16:00:17.970Z,6.30
2023-02-05T16:05:22.649Z,8.20
2023-02-05T16:10:19.129Z,6.03
2023-02-05T16:15:15.278Z,10.93
2023-02-05T16:20:22.609Z,4.88
2023-02-05T16:25:49.958Z,10.07
2023-02-05T16:30:44.107Z,8.65
2023-02-05T16:35:39.963Z,8.75
2023-02-05T16:40:43.434Z,8.13
2023-02-05T16:45:36.146Z,7.55
2023-02-05T16:50:38.027Z,6.55
2023-02-05T16:55:32.166Z,5.00
2023-02-05T17:00:28.645Z,7.40
2023-02-05T17:05:25.245Z,8.75
2023-02-05T17:10:22.262Z,8.70
2023-02-05T17:15:14.870Z,7.47
2023-02-05T17:20:46.456Z,10.82
2023-02-05T17:25:47.305Z,10.73
2023-02-05T17:30:42.061Z,10.27
2023-02-05T17:35:35.040Z,14.60
2023-02-05T17:40:28.306Z,7.70
2023-02-05T17:45:26.523Z,14.95
2023-02-05T17:50:20.308Z,9.13
2023-02-05T17:55:16.022Z,10.68
2023-02-05T18:00:15.355Z,7.75
2023-02-05T18:05:08.527Z,13.37
2023-02-05T18:10:02.697Z,15.45
2023-02-05T18:14:56.458Z,14.75
2023-02-05T18:19:49.164Z,14.30
2023-02-05T18:24:42.168Z,15.43
2023-02-05T18:29:36.491Z,9.55
2023-02-05T18:34:31.210Z,9.88
2023-02-05T18:39:29.945Z,20.77
2023-02-05T18:44:24.176Z,9.32
2023-02-05T18:49:16.944Z,9.45
2023-02-05T18:54:10.189Z,9.65
2023-02-05T18:59:06.209Z,15.70
2023-02-05T19:04:05.197Z,11.48
2023-02-05T19:09:01.197Z,10.63
2023-02-05T19:14:08.167Z,13.07
2023-02-05T19:19:08.665Z,13.27
2023-02-05T19:24:05.936Z,15.55
2023-02-05T19:29:01.240Z,22.52
2023-02-05T19:33:55.542Z,14.70
2023-02-05T19:38:50.396Z,18.13
2023-02-05T19:43:50.761Z,17.73
2023-02-05T19:48:52.268Z,13.07
2023-02-05T19:53:47.681Z,15.20
2023-02-05T19:58:44.151Z,20.92
2023-02-05T20:03:37.461Z,17.27
2023-02-05T20:08:30.738Z,23.95
2023-02-05T20:13:27.185Z,12.23
2023-02-05T20:18:20.717Z,14.50
2023-02-05T20:23:13.801Z,22.77
2023-02-05T20:28:07.063Z,16.20
2023-02-05T20:33:00.774Z,12.48
2023-02-05T20:37:54.727Z,13.80
2023-02-05T20:42:47.948Z,18.38
2023-02-05T20:47:40.301Z,18.67
2023-02-05T20:52:34.011Z,16.48
2023-02-05T20:57:27.992Z,11.90
2023-02-05T21:02:22.908Z,14.15
2023-02-05T21:07:15.146Z,12.30
2023-02-05T21:12:09.154Z,14.95
2023-02-05T21:17:02.160Z,14.68
2023-02-05T21:21:54.977Z,17.85
2023-02-05T21:26:50.523Z,25.38
2023-02-05T21:31:46.823Z,19.33
2023-02-05T21:36:40.787Z,19.50
2023-02-05T21:41:33.919Z,23.50
2023-02-05T21:46:29.646Z,21.25
2023-02-05T21:51:24.553Z,19.17
2023-02-05T21:56:18.734Z,18.17
2023-02-05T22:01:17.111Z,22.83
2023-02-05T22:06:10.570Z,21.42
2023-02-05T22:11:08.027Z,30.48
2023-02-05T22:16:08.119Z,16.55
2023-02-05T22:21:12.644Z,21.30
2023-02-05T22:26:07.326Z,23.83
2023-02-05T22:31:06.599Z,43.45
2023-02-05T22:35:59.926Z,18.37
2023-02-05T22:40:53.208Z,18.85
2023-02-05T22:45:45.957Z,16.48
2023-02-05T22:50:42.655Z,16.30
2023-02-05T22:55:36.899Z,19.27
2023-02-05T23:00:31.466Z,20.08
2023-02-05T23:05:25.477Z,16.13
2023-02-05T23:10:20.997Z,18.13
2023-02-05T23:15:14.742Z,17.33
2023-02-05T23:20:09.674Z,15.48
2023-02-05T23:25:03.177Z,13.13
2023-02-05T23:29:55.874Z,15.07
2023-02-05T23:34:49.268Z,12.00
2023-02-05T23:39:42.949Z,14.10
2023-02-05T23:44:35.954Z,15.82
2023-02-05T23:49:29.945Z,14.32
2023-02-05T23:54:24.216Z,15.60
2023-02-05T23:59:17.862Z,13.80
